sensor_id;sensor_type;location;lat;lon;timestamp;pressure;altitude;pressure_sealevel;temperature;humidity
79077;BME280;68477;42.698;23.342;2023-04-01T00:02:05;94518.38;;;10.41;57.83
79077;BME280;68477;42.698;23.342;2023-04-01T00:04:31;94514.19;;;10.25;58.25
79077;BME280;68477;42.698;23.342;2023-04-01T00:06:57;94529.97;;;10.25;58.30
79077;BME280;68477;42.698;23.342;2023-04-01T00:09:23;94522.31;;;10.30;58.17
79077;BME280;68477;42.698;23.342;2023-04-01T00:11:48;94529.25;;;10.38;57.50
79077;BME280;68477;42.698;23.342;2023-04-01T00:14:14;94529.72;;;10.05;57.96
79077;BME280;68477;42.698;23.342;2023-04-01T00:16:40;94527.19;;;10.12;57.62
79077;BME280;68477;42.698;23.342;2023-04-01T00:19:06;94525.53;;;10.26;57.61
79077;BME280;68477;42.698;23.342;2023-04-01T00:21:31;94523.53;;;9.91;59.40
79077;BME280;68477;42.698;23.342;2023-04-01T00:23:57;94530.44;;;10.14;58.89
79077;BME280;68477;42.698;23.342;2023-04-01T00:26:23;94526.06;;;9.85;59.56
79077;BME280;68477;42.698;23.342;2023-04-01T00:28:50;94520.47;;;9.88;59.45
79077;BME280;68477;42.698;23.342;2023-04-01T00:31:15;94516.66;;;9.90;59.67
79077;BME280;68477;42.698;23.342;2023-04-01T00:33:41;94516.84;;;9.53;60.72
79077;BME280;68477;42.698;23.342;2023-04-01T00:36:12;94511.84;;;9.94;58.98
79077;BME280;68477;42.698;23.342;2023-04-01T00:38:38;94516.97;;;10.02;58.77
79077;BME280;68477;42.698;23.342;2023-04-01T00:41:04;94509.28;;;10.01;58.78
79077;BME280;68477;42.698;23.342;2023-04-01T00:43:31;94498.66;;;10.30;57.80
79077;BME280;68477;42.698;23.342;2023-04-01T00:45:57;94495.19;;;10.23;57.59
79077;BME280;68477;42.698;23.342;2023-04-01T00:48:24;94498.22;;;10.27;58.28
79077;BME280;68477;42.698;23.342;2023-04-01T00:50:59;94494.25;;;10.31;58.95
79077;BME280;68477;42.698;23.342;2023-04-01T00:53:26;94483.03;;;10.43;57.75
79077;BME280;68477;42.698;23.342;2023-04-01T00:56:21;94482.56;;;10.40;58.37
79077;BME280;68477;42.698;23.342;2023-04-01T00:58:54;94475.25;;;10.35;58.37
79077;BME280;68477;42.698;23.342;2023-04-01T01:01:23;94467.91;;;10.24;58.46
79077;BME280;68477;42.698;23.342;2023-04-01T01:03:49;94466.06;;;10.03;58.65
79077;BME280;68477;42.698;23.342;2023-04-01T01:06:18;94456.47;;;10.17;59.44
79077;BME280;68477;42.698;23.342;2023-04-01T01:14:40;94455.38;;;10.26;58.64
79077;BME280;68477;42.698;23.342;2023-04-01T01:20:18;94444.47;;;10.08;59.17
79077;BME280;68477;42.698;23.342;2023-04-01T01:23:07;94442.09;;;10.13;58.81
79077;BME280;68477;42.698;23.342;2023-04-01T01:28:46;94437.47;;;9.93;60.15
79077;BME280;68477;42.698;23.342;2023-04-01T01:37:01;94424.84;;;10.04;59.83
79077;BME280;68477;42.698;23.342;2023-04-01T01:39:31;94422.63;;;10.07;59.16
79077;BME280;68477;42.698;23.342;2023-04-01T01:42:02;94423.63;;;10.06;59.49
79077;BME280;68477;42.698;23.342;2023-04-01T01:44:29;94423.28;;;10.09;59.92
79077;BME280;68477;42.698;23.342;2023-04-01T01:46:56;94420.25;;;10.12;57.79
79077;BME280;68477;42.698;23.342;2023-04-01T01:49:22;94419.66;;;10.32;57.84
79077;BME280;68477;42.698;23.342;2023-04-01T01:51:48;94416.31;;;10.44;57.04
79077;BME280;68477;42.698;23.342;2023-04-01T01:54:16;94419.34;;;10.48;57.89
79077;BME280;68477;42.698;23.342;2023-04-01T01:56:45;94403.38;;;10.49;58.03
79077;BME280;68477;42.698;23.342;2023-04-01T01:59:12;94410.66;;;10.47;57.78
79077;BME280;68477;42.698;23.342;2023-04-01T02:01:42;94414.16;;;10.61;56.75
79077;BME280;68477;42.698;23.342;2023-04-01T02:04:11;94406.41;;;10.81;55.55
79077;BME280;68477;42.698;23.342;2023-04-01T02:06:51;94412.06;;;10.85;54.77
79077;BME280;68477;42.698;23.342;2023-04-01T02:09:19;94401.69;;;10.70;56.40
79077;BME280;68477;42.698;23.342;2023-04-01T02:11:49;94400.75;;;10.84;56.60
79077;BME280;68477;42.698;23.342;2023-04-01T02:14:29;94399.53;;;10.87;56.50
79077;BME280;68477;42.698;23.342;2023-04-01T02:17:09;94383.34;;;10.20;59.65
79077;BME280;68477;42.698;23.342;2023-04-01T02:19:50;94385.03;;;10.07;60.85
79077;BME280;68477;42.698;23.342;2023-04-01T02:22:21;94388.28;;;10.30;60.07
79077;BME280;68477;42.698;23.342;2023-04-01T02:24:50;94388.75;;;10.40;58.25
79077;BME280;68477;42.698;23.342;2023-04-01T02:27:18;94387.09;;;10.33;58.57
79077;BME280;68477;42.698;23.342;2023-04-01T02:29:44;94380.72;;;10.20;58.70
79077;BME280;68477;42.698;23.342;2023-04-01T02:32:10;94384.91;;;10.36;57.95
79077;BME280;68477;42.698;23.342;2023-04-01T02:34:36;94391.91;;;10.57;59.71
79077;BME280;68477;42.698;23.342;2023-04-01T02:37:01;94386.38;;;10.45;59.02
79077;BME280;68477;42.698;23.342;2023-04-01T02:39:27;94389.69;;;10.61;57.61
79077;BME280;68477;42.698;23.342;2023-04-01T02:41:53;94390.22;;;10.49;58.08
79077;BME280;68477;42.698;23.342;2023-04-01T02:44:19;94400.34;;;10.46;58.21
79077;BME280;68477;42.698;23.342;2023-04-01T02:46:44;94410.34;;;10.64;57.51
79077;BME280;68477;42.698;23.342;2023-04-01T02:49:10;94406.09;;;10.63;57.90
79077;BME280;68477;42.698;23.342;2023-04-01T02:51:36;94409.94;;;10.32;59.28
79077;BME280;68477;42.698;23.342;2023-04-01T02:54:02;94417.19;;;10.30;59.60
79077;BME280;68477;42.698;23.342;2023-04-01T02:56:28;94421.50;;;10.16;59.13
79077;BME280;68477;42.698;23.342;2023-04-01T02:58:54;94414.31;;;10.53;57.85
79077;BME280;68477;42.698;23.342;2023-04-01T03:01:20;94432.09;;;10.02;58.79
79077;BME280;68477;42.698;23.342;2023-04-01T03:03:46;94432.69;;;9.97;59.69
79077;BME280;68477;42.698;23.342;2023-04-01T03:06:13;94434.59;;;9.67;60.09
79077;BME280;68477;42.698;23.342;2023-04-01T03:08:39;94430.88;;;9.76;60.57
79077;BME280;68477;42.698;23.342;2023-04-01T03:11:05;94424.59;;;9.56;61.11
79077;BME280;68477;42.698;23.342;2023-04-01T03:13:31;94425.72;;;9.68;60.65
79077;BME280;68477;42.698;23.342;2023-04-01T03:15:57;94429.78;;;9.71;59.60
79077;BME280;68477;42.698;23.342;2023-04-01T03:18:23;94428.66;;;9.80;60.14
79077;BME280;68477;42.698;23.342;2023-04-01T03:20:48;94433.59;;;9.89;58.93
79077;BME280;68477;42.698;23.342;2023-04-01T03:23:13;94432.28;;;9.79;58.86
79077;BME280;68477;42.698;23.342;2023-04-01T03:25:41;94437.53;;;9.79;58.87
79077;BME280;68477;42.698;23.342;2023-04-01T03:28:07;94425.97;;;9.95;59.18
79077;BME280;68477;42.698;23.342;2023-04-01T03:30:32;94430.56;;;9.86;59.34
79077;BME280;68477;42.698;23.342;2023-04-01T03:32:59;94442.53;;;9.95;59.59
79077;BME280;68477;42.698;23.342;2023-04-01T03:35:27;94436.44;;;9.88;59.78
79077;BME280;68477;42.698;23.342;2023-04-01T03:37:53;94436.47;;;9.95;61.74
79077;BME280;68477;42.698;23.342;2023-04-01T03:40:19;94432.47;;;9.99;62.10
79077;BME280;68477;42.698;23.342;2023-04-01T03:42:48;94421.88;;;9.85;62.37
79077;BME280;68477;42.698;23.342;2023-04-01T03:45:13;94415.16;;;9.83;63.59
79077;BME280;68477;42.698;23.342;2023-04-01T03:47:39;94408.41;;;9.74;64.97
79077;BME280;68477;42.698;23.342;2023-04-01T03:50:06;94389.84;;;9.75;65.87
79077;BME280;68477;42.698;23.342;2023-04-01T03:52:32;94373.13;;;9.83;63.81
79077;BME280;68477;42.698;23.342;2023-04-01T03:54:58;94374.53;;;9.79;65.45
79077;BME280;68477;42.698;23.342;2023-04-01T03:57:23;94358.19;;;9.62;64.14
79077;BME280;68477;42.698;23.342;2023-04-01T03:59:49;94349.00;;;9.73;63.65
79077;BME280;68477;42.698;23.342;2023-04-01T04:02:14;94332.94;;;9.82;65.00
79077;BME280;68477;42.698;23.342;2023-04-01T04:04:40;94327.63;;;9.76;64.33
79077;BME280;68477;42.698;23.342;2023-04-01T04:07:06;94327.88;;;9.59;63.58
79077;BME280;68477;42.698;23.342;2023-04-01T04:09:32;94327.50;;;9.62;62.10
79077;BME280;68477;42.698;23.342;2023-04-01T04:11:59;94317.59;;;9.37;63.84
79077;BME280;68477;42.698;23.342;2023-04-01T04:14:25;94310.78;;;9.42;65.98
79077;BME280;68477;42.698;23.342;2023-04-01T04:16:51;94316.06;;;9.70;64.55
79077;BME280;68477;42.698;23.342;2023-04-01T04:19:17;94301.72;;;9.45;62.49
79077;BME280;68477;42.698;23.342;2023-04-01T04:21:42;94306.09;;;9.59;63.23
79077;BME280;68477;42.698;23.342;2023-04-01T04:24:08;94307.28;;;9.84;60.92
79077;BME280;68477;42.698;23.342;2023-04-01T04:26:34;94300.28;;;9.63;61.15
79077;BME280;68477;42.698;23.342;2023-04-01T04:29:00;94297.69;;;9.70;60.55
79077;BME280;68477;42.698;23.342;2023-04-01T04:31:26;94288.78;;;9.43;61.19
79077;BME280;68477;42.698;23.342;2023-04-01T04:33:52;94272.44;;;9.41;61.18
79077;BME280;68477;42.698;23.342;2023-04-01T04:36:18;94290.44;;;9.23;62.28
79077;BME280;68477;42.698;23.342;2023-04-01T04:38:45;94276.06;;;9.40;62.88
79077;BME280;68477;42.698;23.342;2023-04-01T04:41:15;94272.38;;;9.62;61.76
79077;BME280;68477;42.698;23.342;2023-04-01T04:43:48;94284.59;;;9.27;62.93
79077;BME280;68477;42.698;23.342;2023-04-01T04:46:14;94271.44;;;9.42;62.28
79077;BME280;68477;42.698;23.342;2023-04-01T04:48:39;94278.59;;;9.55;61.86
79077;BME280;68477;42.698;23.342;2023-04-01T04:51:05;94273.13;;;9.84;60.93
79077;BME280;68477;42.698;23.342;2023-04-01T04:53:30;94264.38;;;9.71;59.48
79077;BME280;68477;42.698;23.342;2023-04-01T04:55:56;94254.44;;;9.66;61.11
79077;BME280;68477;42.698;23.342;2023-04-01T04:58:21;94248.63;;;9.71;60.08
79077;BME280;68477;42.698;23.342;2023-04-01T05:00:47;94257.09;;;9.45;62.54
79077;BME280;68477;42.698;23.342;2023-04-01T05:03:13;94253.91;;;9.49;62.13
79077;BME280;68477;42.698;23.342;2023-04-01T05:05:39;94256.94;;;9.74;62.20
79077;BME280;68477;42.698;23.342;2023-04-01T05:08:05;94261.69;;;9.92;61.08
79077;BME280;68477;42.698;23.342;2023-04-01T05:10:31;94253.25;;;9.97;60.51
79077;BME280;68477;42.698;23.342;2023-04-01T05:12:57;94236.00;;;9.87;60.62
79077;BME280;68477;42.698;23.342;2023-04-01T05:15:23;94223.09;;;9.92;59.77
79077;BME280;68477;42.698;23.342;2023-04-01T05:17:48;94221.91;;;9.95;60.84
79077;BME280;68477;42.698;23.342;2023-04-01T05:20:14;94233.38;;;9.87;61.39
79077;BME280;68477;42.698;23.342;2023-04-01T05:22:40;94224.50;;;9.88;60.81
79077;BME280;68477;42.698;23.342;2023-04-01T05:25:06;94211.13;;;9.83;60.22
79077;BME280;68477;42.698;23.342;2023-04-01T05:27:32;94201.22;;;9.79;58.65
79077;BME280;68477;42.698;23.342;2023-04-01T05:29:58;94206.13;;;9.88;58.81
79077;BME280;68477;42.698;23.342;2023-04-01T05:32:23;94205.69;;;9.85;59.71
79077;BME280;68477;42.698;23.342;2023-04-01T05:34:52;94212.75;;;9.84;59.95
79077;BME280;68477;42.698;23.342;2023-04-01T05:37:18;94220.06;;;10.24;59.21
79077;BME280;68477;42.698;23.342;2023-04-01T05:39:43;94221.69;;;10.79;55.22
79077;BME280;68477;42.698;23.342;2023-04-01T05:42:09;94219.72;;;11.14;54.51
79077;BME280;68477;42.698;23.342;2023-04-01T05:44:35;94223.97;;;11.48;52.75
79077;BME280;68477;42.698;23.342;2023-04-01T05:47:01;94217.25;;;11.65;53.65
79077;BME280;68477;42.698;23.342;2023-04-01T05:49:27;94215.69;;;11.45;53.45
79077;BME280;68477;42.698;23.342;2023-04-01T05:51:53;94213.22;;;11.63;52.75
79077;BME280;68477;42.698;23.342;2023-04-01T05:54:18;94194.16;;;11.87;51.27
79077;BME280;68477;42.698;23.342;2023-04-01T05:56:44;94200.44;;;11.86;51.37
79077;BME280;68477;42.698;23.342;2023-04-01T05:59:11;94201.22;;;12.13;50.56
79077;BME280;68477;42.698;23.342;2023-04-01T06:01:37;94196.34;;;12.10;48.71
79077;BME280;68477;42.698;23.342;2023-04-01T06:04:02;94197.50;;;12.28;49.63
79077;BME280;68477;42.698;23.342;2023-04-01T06:06:29;94204.84;;;13.02;49.49
79077;BME280;68477;42.698;23.342;2023-04-01T06:08:58;94199.69;;;13.13;46.85
79077;BME280;68477;42.698;23.342;2023-04-01T06:14:12;94192.53;;;13.52;45.83
79077;BME280;68477;42.698;23.342;2023-04-01T06:27:51;94201.38;;;13.39;46.42
79077;BME280;68477;42.698;23.342;2023-04-01T06:30:42;94201.56;;;13.06;47.08
79077;BME280;68477;42.698;23.342;2023-04-01T06:41:17;94171.66;;;13.12;48.01
79077;BME280;68477;42.698;23.342;2023-04-01T06:44:04;94168.72;;;13.02;48.78
79077;BME280;68477;42.698;23.342;2023-04-01T06:47:03;94163.97;;;12.79;49.84
79077;BME280;68477;42.698;23.342;2023-04-01T06:54:45;94147.66;;;12.89;49.66
79077;BME280;68477;42.698;23.342;2023-04-01T06:57:35;94145.56;;;13.04;49.35
79077;BME280;68477;42.698;23.342;2023-04-01T07:00:13;94132.50;;;12.85;50.66
79077;BME280;68477;42.698;23.342;2023-04-01T07:02:45;94142.13;;;12.97;49.67
79077;BME280;68477;42.698;23.342;2023-04-01T07:05:14;94147.41;;;12.97;50.72
79077;BME280;68477;42.698;23.342;2023-04-01T07:07:47;94156.16;;;12.98;51.71
79077;BME280;68477;42.698;23.342;2023-04-01T07:10:22;94156.38;;;12.96;51.89
79077;BME280;68477;42.698;23.342;2023-04-01T07:12:56;94147.75;;;12.76;51.84
79077;BME280;68477;42.698;23.342;2023-04-01T07:15:48;94140.03;;;12.81;52.99
79077;BME280;68477;42.698;23.342;2023-04-01T07:18:22;94128.16;;;13.22;52.04
79077;BME280;68477;42.698;23.342;2023-04-01T07:20:51;94124.59;;;13.34;51.25
79077;BME280;68477;42.698;23.342;2023-04-01T07:23:31;94131.84;;;13.21;51.92
79077;BME280;68477;42.698;23.342;2023-04-01T07:26:16;94130.00;;;13.21;51.62
79077;BME280;68477;42.698;23.342;2023-04-01T07:28:42;94139.41;;;13.35;51.95
79077;BME280;68477;42.698;23.342;2023-04-01T07:36:42;94149.34;;;13.40;51.40
79077;BME280;68477;42.698;23.342;2023-04-01T07:55:28;94124.63;;;13.96;50.68
79077;BME280;68477;42.698;23.342;2023-04-01T07:57:58;94113.38;;;14.01;48.64
79077;BME280;68477;42.698;23.342;2023-04-01T08:00:31;94130.03;;;14.01;49.21
79077;BME280;68477;42.698;23.342;2023-04-01T08:06:09;94116.66;;;14.14;49.40
79077;BME280;68477;42.698;23.342;2023-04-01T08:11:25;94107.25;;;14.18;47.76
79077;BME280;68477;42.698;23.342;2023-04-01T08:17:10;94089.69;;;14.24;49.00
79077;BME280;68477;42.698;23.342;2023-04-01T08:22:25;94078.19;;;14.18;48.69
79077;BME280;68477;42.698;23.342;2023-04-01T08:24:54;94071.41;;;14.22;49.13
79077;BME280;68477;42.698;23.342;2023-04-01T08:27:24;94076.19;;;14.44;47.78
79077;BME280;68477;42.698;23.342;2023-04-01T08:29:58;94078.09;;;14.55;48.41
79077;BME280;68477;42.698;23.342;2023-04-01T08:32:39;94078.25;;;14.72;47.79
79077;BME280;68477;42.698;23.342;2023-04-01T08:35:11;94055.72;;;14.81;47.54
79077;BME280;68477;42.698;23.342;2023-04-01T08:37:41;94046.56;;;14.95;47.81
79077;BME280;68477;42.698;23.342;2023-04-01T09:11:01;94012.28;;;18.06;35.94
79077;BME280;68477;42.698;23.342;2023-04-01T09:18:59;94015.63;;;17.35;39.05
79077;BME280;68477;42.698;23.342;2023-04-01T09:21:41;94013.59;;;17.42;36.90
79077;BME280;68477;42.698;23.342;2023-04-01T09:27:29;93996.97;;;17.13;35.39
79077;BME280;68477;42.698;23.342;2023-04-01T09:39:03;93976.38;;;16.87;36.52
79077;BME280;68477;42.698;23.342;2023-04-01T09:44:36;93966.19;;;17.17;37.40
79077;BME280;68477;42.698;23.342;2023-04-01T09:56:13;93932.47;;;17.40;34.61
79077;BME280;68477;42.698;23.342;2023-04-01T10:07:36;93921.81;;;17.57;34.92
79077;BME280;68477;42.698;23.342;2023-04-01T10:30:06;93904.28;;;16.45;38.55
79077;BME280;68477;42.698;23.342;2023-04-01T10:36:05;93890.28;;;16.49;38.20
79077;BME280;68477;42.698;23.342;2023-04-01T10:59:36;93872.31;;;16.06;41.67
79077;BME280;68477;42.698;23.342;2023-04-01T11:11:03;93848.00;;;16.43;40.47
79077;BME280;68477;42.698;23.342;2023-04-01T11:14:15;93853.59;;;16.46;40.13
79077;BME280;68477;42.698;23.342;2023-04-01T11:19:58;93852.09;;;16.34;40.70
79077;BME280;68477;42.698;23.342;2023-04-01T11:33:57;93893.16;;;16.14;41.97
79077;BME280;68477;42.698;23.342;2023-04-01T11:47:58;94030.22;;;15.33;48.21
79077;BME280;68477;42.698;23.342;2023-04-01T11:53:08;94070.78;;;13.90;59.54
79077;BME280;68477;42.698;23.342;2023-04-01T11:56:07;94090.03;;;13.36;61.07
79077;BME280;68477;42.698;23.342;2023-04-01T12:07:06;94130.44;;;12.55;66.76
79077;BME280;68477;42.698;23.342;2023-04-01T12:12:18;94103.91;;;12.50;69.11
79077;BME280;68477;42.698;23.342;2023-04-01T12:15:17;94094.41;;;12.42;69.88
79077;BME280;68477;42.698;23.342;2023-04-01T12:18:04;94089.03;;;12.24;71.68
79077;BME280;68477;42.698;23.342;2023-04-01T12:20:42;94087.28;;;12.43;72.44
79077;BME280;68477;42.698;23.342;2023-04-01T12:23:37;94096.59;;;12.77;71.23
79077;BME280;68477;42.698;23.342;2023-04-01T12:32:34;94115.31;;;13.00;69.33
79077;BME280;68477;42.698;23.342;2023-04-01T12:35:34;94120.00;;;12.67;71.29
79077;BME280;68477;42.698;23.342;2023-04-01T12:41:08;94127.00;;;12.10;71.19
79077;BME280;68477;42.698;23.342;2023-04-01T12:46:24;94104.59;;;12.32;69.02
79077;BME280;68477;42.698;23.342;2023-04-01T12:54:55;94106.34;;;12.00;71.16
79077;BME280;68477;42.698;23.342;2023-04-01T13:06:22;94047.72;;;11.60;74.19
79077;BME280;68477;42.698;23.342;2023-04-01T13:16:54;94031.22;;;11.78;74.84
79077;BME280;68477;42.698;23.342;2023-04-01T13:19:46;94035.38;;;12.12;74.44
79077;BME280;68477;42.698;23.342;2023-04-01T13:28:05;94013.84;;;12.15;73.82
79077;BME280;68477;42.698;23.342;2023-04-01T13:36:49;93999.13;;;13.07;69.16
79077;BME280;68477;42.698;23.342;2023-04-01T13:44:37;93972.03;;;14.45;64.34
79077;BME280;68477;42.698;23.342;2023-04-01T13:55:30;93966.03;;;14.08;63.57
79077;BME280;68477;42.698;23.342;2023-04-01T14:01:13;93959.28;;;15.00;62.65
79077;BME280;68477;42.698;23.342;2023-04-01T14:06:57;93946.81;;;15.24;59.86
79077;BME280;68477;42.698;23.342;2023-04-01T14:12:58;93939.78;;;16.10;57.39
79077;BME280;68477;42.698;23.342;2023-04-01T14:18:00;93946.66;;;15.94;55.83
79077;BME280;68477;42.698;23.342;2023-04-01T14:31:59;93897.16;;;15.71;55.73
79077;BME280;68477;42.698;23.342;2023-04-01T14:34:40;93897.94;;;15.43;55.45
79077;BME280;68477;42.698;23.342;2023-04-01T14:40:20;93894.16;;;15.80;54.02
79077;BME280;68477;42.698;23.342;2023-04-01T14:48:57;93904.69;;;15.75;53.52
79077;BME280;68477;42.698;23.342;2023-04-01T14:51:36;93901.53;;;15.78;53.06
79077;BME280;68477;42.698;23.342;2023-04-01T14:54:08;93906.44;;;16.14;53.12
79077;BME280;68477;42.698;23.342;2023-04-01T14:56:39;93901.59;;;16.11;53.30
79077;BME280;68477;42.698;23.342;2023-04-01T14:59:28;93905.69;;;15.73;53.03
79077;BME280;68477;42.698;23.342;2023-04-01T15:10:31;93908.06;;;15.87;52.16
79077;BME280;68477;42.698;23.342;2023-04-01T15:13:13;93910.34;;;15.14;55.62
79077;BME280;68477;42.698;23.342;2023-04-01T15:27:46;93925.63;;;13.89;58.13
79077;BME280;68477;42.698;23.342;2023-04-01T15:30:21;93929.66;;;13.91;57.78
79077;BME280;68477;42.698;23.342;2023-04-01T15:34:04;93906.47;;;13.63;57.16
79077;BME280;68477;42.698;23.342;2023-04-01T15:36:24;93917.78;;;13.71;57.75
79077;BME280;68477;42.698;23.342;2023-04-01T15:39:38;93927.19;;;13.78;57.64
79077;BME280;68477;42.698;23.342;2023-04-01T15:47:37;93920.72;;;13.62;58.11
79077;BME280;68477;42.698;23.342;2023-04-01T15:53:16;94111.88;;;13.50;54.70
79077;BME280;68477;42.698;23.342;2023-04-01T16:04:07;94173.13;;;10.82;65.02
79077;BME280;68477;42.698;23.342;2023-04-01T16:11:59;94177.13;;;10.10;70.91
79077;BME280;68477;42.698;23.342;2023-04-01T16:20:13;94180.50;;;9.97;73.87
79077;BME280;68477;42.698;23.342;2023-04-01T16:22:49;94188.66;;;10.15;72.31
79077;BME280;68477;42.698;23.342;2023-04-01T16:25:36;94192.19;;;9.88;71.77
79077;BME280;68477;42.698;23.342;2023-04-01T16:31:10;94204.66;;;9.79;71.83
79077;BME280;68477;42.698;23.342;2023-04-01T16:33:47;94194.00;;;9.87;72.28
79077;BME280;68477;42.698;23.342;2023-04-01T16:36:32;94205.97;;;9.97;70.93
79077;BME280;68477;42.698;23.342;2023-04-01T16:42:26;94228.13;;;9.87;71.02
79077;BME280;68477;42.698;23.342;2023-04-01T16:47:27;94226.66;;;9.78;69.68
79077;BME280;68477;42.698;23.342;2023-04-01T16:50:06;94228.34;;;9.92;69.12
79077;BME280;68477;42.698;23.342;2023-04-01T16:52:51;94227.69;;;9.84;67.54
79077;BME280;68477;42.698;23.342;2023-04-01T16:55:55;94233.81;;;9.91;66.90
79077;BME280;68477;42.698;23.342;2023-04-01T17:01:25;94235.97;;;9.81;65.95
79077;BME280;68477;42.698;23.342;2023-04-01T17:03:58;94229.69;;;9.82;66.34
79077;BME280;68477;42.698;23.342;2023-04-01T17:11:46;94252.50;;;9.75;65.88
79077;BME280;68477;42.698;23.342;2023-04-01T17:14:28;94253.25;;;9.69;66.42
79077;BME280;68477;42.698;23.342;2023-04-01T17:22:25;94263.47;;;9.57;67.11
79077;BME280;68477;42.698;23.342;2023-04-01T17:27:42;94278.50;;;9.42;66.17
79077;BME280;68477;42.698;23.342;2023-04-01T17:30:24;94261.75;;;9.43;66.02
79077;BME280;68477;42.698;23.342;2023-04-01T17:49:41;94295.56;;;9.31;67.46
79077;BME280;68477;42.698;23.342;2023-04-01T17:52:44;94300.09;;;9.22;68.49
79077;BME280;68477;42.698;23.342;2023-04-01T17:58:21;94316.78;;;8.79;69.75
79077;BME280;68477;42.698;23.342;2023-04-01T18:07:05;94346.38;;;8.58;70.33
79077;BME280;68477;42.698;23.342;2023-04-01T18:23:30;94350.50;;;8.96;66.22
79077;BME280;68477;42.698;23.342;2023-04-01T18:26:31;94338.53;;;8.94;66.05
79077;BME280;68477;42.698;23.342;2023-04-01T18:29:44;94343.91;;;8.86;66.86
79077;BME280;68477;42.698;23.342;2023-04-01T18:31:51;94353.78;;;8.69;67.15
79077;BME280;68477;42.698;23.342;2023-04-01T18:34:59;94357.94;;;8.78;67.50
79077;BME280;68477;42.698;23.342;2023-04-01T18:37:42;94359.81;;;8.69;66.93
79077;BME280;68477;42.698;23.342;2023-04-01T18:40:19;94359.47;;;8.72;66.63
79077;BME280;68477;42.698;23.342;2023-04-01T18:45:57;94345.47;;;8.36;69.14
79077;BME280;68477;42.698;23.342;2023-04-01T18:51:14;94357.00;;;8.71;68.45
79077;BME280;68477;42.698;23.342;2023-04-01T18:53:58;94355.75;;;8.82;66.85
79077;BME280;68477;42.698;23.342;2023-04-01T18:56:31;94361.53;;;8.77;67.26
79077;BME280;68477;42.698;23.342;2023-04-01T18:59:16;94370.13;;;8.71;68.08
79077;BME280;68477;42.698;23.342;2023-04-01T19:04:39;94375.09;;;8.95;66.80
79077;BME280;68477;42.698;23.342;2023-04-01T19:15:39;94385.78;;;9.15;66.00
79077;BME280;68477;42.698;23.342;2023-04-01T19:40:35;94421.09;;;8.98;63.85
79077;BME280;68477;42.698;23.342;2023-04-01T19:45:51;94421.16;;;9.04;61.67
79077;BME280;68477;42.698;23.342;2023-04-01T19:49:00;94410.22;;;9.16;61.17
79077;BME280;68477;42.698;23.342;2023-04-01T19:57:09;94432.47;;;9.05;61.88
79077;BME280;68477;42.698;23.342;2023-04-01T20:05:33;94434.94;;;9.07;61.22
79077;BME280;68477;42.698;23.342;2023-04-01T20:08:10;94433.47;;;9.04;61.50
79077;BME280;68477;42.698;23.342;2023-04-01T20:10:48;94430.78;;;8.97;60.91
79077;BME280;68477;42.698;23.342;2023-04-01T20:16:04;94435.91;;;9.05;62.08
79077;BME280;68477;42.698;23.342;2023-04-01T20:21:18;94435.94;;;8.91;62.08
79077;BME280;68477;42.698;23.342;2023-04-01T20:24:04;94430.84;;;9.04;62.09
79077;BME280;68477;42.698;23.342;2023-04-01T20:26:36;94443.91;;;8.97;62.01
79077;BME280;68477;42.698;23.342;2023-04-01T20:31:53;94445.88;;;9.10;61.08
79077;BME280;68477;42.698;23.342;2023-04-01T20:34:40;94441.06;;;9.14;60.47
79077;BME280;68477;42.698;23.342;2023-04-01T20:37:21;94443.50;;;9.15;59.55
79077;BME280;68477;42.698;23.342;2023-04-01T20:42:54;94446.66;;;9.25;58.32
79077;BME280;68477;42.698;23.342;2023-04-01T20:45:46;94451.31;;;9.09;59.85
79077;BME280;68477;42.698;23.342;2023-04-01T20:51:16;94465.22;;;9.09;58.15
79077;BME280;68477;42.698;23.342;2023-04-01T20:53:50;94460.25;;;9.14;58.14
79077;BME280;68477;42.698;23.342;2023-04-01T20:56:47;94464.75;;;9.05;58.73
79077;BME280;68477;42.698;23.342;2023-04-01T21:15:40;94473.00;;;8.88;58.95
79077;BME280;68477;42.698;23.342;2023-04-01T21:26:29;94484.06;;;8.98;59.03
79077;BME280;68477;42.698;23.342;2023-04-01T21:42:23;94489.56;;;9.18;57.77
79077;BME280;68477;42.698;23.342;2023-04-01T21:45:19;94490.91;;;8.99;58.99
79077;BME280;68477;42.698;23.342;2023-04-01T22:04:22;94483.69;;;9.01;58.80
79077;BME280;68477;42.698;23.342;2023-04-01T22:09:39;94475.19;;;8.84;58.65
79077;BME280;68477;42.698;23.342;2023-04-01T22:12:17;94474.91;;;8.79;59.59
79077;BME280;68477;42.698;23.342;2023-04-01T22:14:59;94474.28;;;8.77;59.12
79077;BME280;68477;42.698;23.342;2023-04-01T22:20:19;94478.22;;;8.58;60.42
79077;BME280;68477;42.698;23.342;2023-04-01T22:31:01;94477.03;;;8.46;60.28
79077;BME280;68477;42.698;23.342;2023-04-01T22:36:18;94470.31;;;8.29;62.06
79077;BME280;68477;42.698;23.342;2023-04-01T22:49:57;94486.09;;;8.21;63.87
79077;BME280;68477;42.698;23.342;2023-04-01T22:52:45;94476.97;;;8.31;62.47
79077;BME280;68477;42.698;23.342;2023-04-01T22:55:28;94492.13;;;8.21;62.39
79077;BME280;68477;42.698;23.342;2023-04-01T22:58:07;94482.91;;;8.48;59.23
79077;BME280;68477;42.698;23.342;2023-04-01T23:00:58;94494.06;;;8.50;58.99
79077;BME280;68477;42.698;23.342;2023-04-01T23:03:44;94493.31;;;8.41;59.64
79077;BME280;68477;42.698;23.342;2023-04-01T23:06:42;94495.13;;;8.56;57.16
79077;BME280;68477;42.698;23.342;2023-04-01T23:09:19;94501.09;;;8.50;58.51
79077;BME280;68477;42.698;23.342;2023-04-01T23:22:34;94505.38;;;8.05;60.41
79077;BME280;68477;42.698;23.342;2023-04-01T23:25:17;94502.66;;;8.13;58.88
79077;BME280;68477;42.698;23.342;2023-04-01T23:27:47;94505.97;;;8.30;58.99
79077;BME280;68477;42.698;23.342;2023-04-01T23:33:19;94514.16;;;8.35;58.08
79077;BME280;68477;42.698;23.342;2023-04-01T23:35:50;94518.06;;;8.39;57.98
79077;BME280;68477;42.698;23.342;2023-04-01T23:38:18;94509.94;;;8.49;57.94